Главная страница
METAR-TAF:

METAR-TAF

Аэропорты :

Нордхольц, Германия

широта: 53-46N, долгота: 008-40E, высота над уровнем моря: 23 м

Текущие метеонаблюдения

Эта сводка был подготовлена 25 минут назад, в 02:20 UTC
Ветер 1 Узел от северно-северо-западный
Температура 4°C
Влажность 87%
Давление 1030 hPa
Видимость 10 км и более
Рассеянная облачность на высоте 10000 фута

METAR: ETMN 240220Z 33001KT 9999 BKN100 04/02 Q1030 BLU

Время: 03:45 (02:45 UTC)


TAF: отсутствует

Метеонаблюдения и прогнозы для более 4000 аэропортов (сводки METAR и TAF).

Имеющиеся станции представлены на карте желтыми и красными точками.

Чтобы увидеть название станции, наведите на нее мышь.

Затем щелкните, чтобы увидеть метеонаблюдения и метеопрогнозы.

Управление картой: чтобы увеличить масштаб, щелкните зеленые кнопки с черным крестиком; чтобы уменьшить масштаб, щелкните зеленую кнопку с тире; для просмотра соседних карт щелкайте зеленые стрелки.


METAR-TAF: